Terminal Aerodrome Forecast
Issued by NWS Wichita, KS

Home | Current Version | Previous Version | Graphics & Text | Print | Product List | Glossary On
Versions: 1 2 3 4 5 6 7 8 9 10 11 12 13 14 15 16 17 18 19 20
000
FTUS43 KICT 191728
TAFICT
TAF
KICT 191728Z 1918/2018 18014KT P6SM FEW250
     FM200700 17011KT P6SM SCT250 WS020/19040KT
     FM201300 17015G22KT P6SM SCT250
     FM201700 18023G33KT P6SM BKN110=

USA.gov is the U.S. government's official web portal to all federal, state and local government web resources and services.